WetterOnline ( https://www.wetteronline.ch )

Wetter aktuell Rostock

Aktuelles Wetter: Rostock-Warnemünde (10m)

6-stündlich | Neueste Meldungen
Ortszeit Temperatur Wetter
So, 16.05. 2:00 9.6° C bedeckt
Sa, 15.05. 20:00 10.5° C bewölkt
Sa, 15.05. 14:00 10.5° C wolkenlos
Sa, 15.05. 8:00 7.7° C bedeckt
Sa, 15.05. 2:00 8.9° C Sprühregen
Fr, 14.05. 20:00 9.3° C bedeckt
Fr, 14.05. 14:00 10.0° C bedeckt
Fr, 14.05. 8:00 9.9° C Nebel
Ortszeit Temperatur Wetter
So, 16.05. 2:10 9.6° C bewölkt
So, 16.05. 2:00 9.6° C bedeckt
So, 16.05. 1:50 9.6° C bedeckt
So, 16.05. 1:40 9.6° C bedeckt
So, 16.05. 1:30 9.6° C wolkig
So, 16.05. 1:20 9.6° C wolkig
So, 16.05. 1:00 9.7° C leicht bewölkt
So, 16.05. 0:30 9.9° C wolkenlos
So, 16.05. 0:00 10.1° C wolkenlos
Sa, 15.05. 23:30 10.3° C leicht bewölkt
Sa, 15.05. 23:00 9.8° C wolkenlos
Ortszeit Relative Feuchte Sichtweite
So, 16.05. 2:00 86% 50 km
Sa, 15.05. 20:00 86% 18 km
Sa, 15.05. 14:00 74% 30 km
Sa, 15.05. 8:00 87% 15 km
Sa, 15.05. 2:00 87% 27 km
Fr, 14.05. 20:00 95% 6 km
Fr, 14.05. 14:00 97% 7 km
Fr, 14.05. 8:00 98% 0.9 km
Ortszeit Relative Feuchte Sichtweite
So, 16.05. 2:10 86% -
So, 16.05. 2:00 86% 50 km
So, 16.05. 1:50 86% -
So, 16.05. 1:40 86% -
So, 16.05. 1:30 86% 45 km
So, 16.05. 1:20 86% -
So, 16.05. 1:00 86% 55 km
So, 16.05. 0:30 85% 55 km
So, 16.05. 0:00 86% 45 km
Sa, 15.05. 23:30 84% 45 km
Sa, 15.05. 23:00 89% 18 km
Ortszeit Niederschlagsmenge Niederschlagsart
So, 16.05. 2:00 0.0 l/m2 in 6 Std. -
Sa, 15.05. 20:00 0.1 l/m2 in 12 Std. Regen
Sa, 15.05. 14:00 0.0 l/m2 in 6 Std. -
Sa, 15.05. 8:00 0.3 l/m2 in 12 Std. Regen
Sa, 15.05. 2:00 0.1 l/m2 in 6 Std. Regen
Fr, 14.05. 20:00 0.3 l/m2 in 12 Std. Regen
Fr, 14.05. 14:00 0.2 l/m2 in 6 Std. Sprühregen
Fr, 14.05. 8:00 0.4 l/m2 in 12 Std. Regen
Ortszeit Niederschlagsmenge Niederschlagsart
So, 16.05. 2:10 keine Meldung -
So, 16.05. 2:00 0.0 l/m2 in 1 Std. -
So, 16.05. 1:50 keine Meldung -
So, 16.05. 1:40 keine Meldung -
So, 16.05. 1:30 0.0 l/m2 in 1 Std. -
So, 16.05. 1:20 keine Meldung -
So, 16.05. 1:00 0.0 l/m2 in 1 Std. -
So, 16.05. 0:30 0.0 l/m2 in 1 Std. -
So, 16.05. 0:00 0.0 l/m2 in 1 Std. -
Sa, 15.05. 23:30 0.0 l/m2 in 1 Std. -
Sa, 15.05. 23:00 0.0 l/m2 in 1 Std. -
Ortszeit Stärke Spitze Richtung
km/h Bft. km/h Grad Sektor
So, 16.05. 2:00 9 2 24 150° SO
Sa, 15.05. 20:00 17 3 24 40° NO
Sa, 15.05. 14:00 11 2 22 340° N
Sa, 15.05. 8:00 11 2 24 220° SW
Sa, 15.05. 2:00 11 2 32 240° SW
Fr, 14.05. 20:00 20 4 39 260° W
Fr, 14.05. 14:00 24 4 31 280° W
Fr, 14.05. 8:00 18 3 32 290° W
Ortszeit Stärke Spitze Richtung
km/h Bft. km/h Grad Sektor
So, 16.05. 2:10 9 2 - 150° SO
So, 16.05. 2:00 9 2 24 150° SO
So, 16.05. 1:50 9 2 - 150° SO
So, 16.05. 1:40 9 2 - 150° SO
So, 16.05. 1:30 7 2 25 160° S
So, 16.05. 1:20 7 2 - 160° S
So, 16.05. 1:00 9 2 19 150° SO
So, 16.05. 0:30 11 2 18 150° SO
So, 16.05. 0:00 11 2 17 140° SO
Sa, 15.05. 23:30 13 3 17 140° SO
Sa, 15.05. 23:00 9 2 17 130° SO
Ortszeit Untergrenze Bedeckung Gattung
total tief tief mittel hoch
So, 16.05. 2:00 4800 m 8/8 8/8 - - -
Sa, 15.05. 20:00 1380 m 7/8 7/8 - - -
Sa, 15.05. 14:00 - 0/8 0/8 - - -
Sa, 15.05. 8:00 240 m 8/8 8/8 - - -
Sa, 15.05. 2:00 330 m 8/8 8/8 - - -
Fr, 14.05. 20:00 150 m 8/8 8/8 - - -
Fr, 14.05. 14:00 60 m 8/8 8/8 - - -
Fr, 14.05. 8:00 <30 m 8/8 0/8 - - -
Ortszeit Bedeckungsgrad in Achtel und Wolkenuntergrenze
So, 16.05. 2:10 5(2100m) 8(5700m) 8(6900m)
So, 16.05. 2:00 6(4800m) 8(5700m) 8(6900m)
So, 16.05. 1:50 6(4800m) 8(5700m) 8(6900m)
So, 16.05. 1:40 8(4800m) 8(6900m)
So, 16.05. 1:30 1(1800m) 7(6000m) 7(6900m)
So, 16.05. 1:20 1(1800m) 7(6000m) 7(6900m)
So, 16.05. 1:00 3(1800m) 5(6900m)
So, 16.05. 0:30 1(2100m)
So, 16.05. 0:00 keine Wolken
Sa, 15.05. 23:30 2(1170m)
Sa, 15.05. 23:00 keine Wolken
Ortszeit Luftdruck NN (hPa) Tendenz (hPa in 3 Std.)
So, 16.05. 2:00 1002 - 0,7
Sa, 15.05. 20:00 1003 - 0,8
Sa, 15.05. 14:00 1006 - 0,9
Sa, 15.05. 8:00 1006 + 0,3
Sa, 15.05. 2:00 1006 - 0,2
Fr, 14.05. 20:00 1006 + 0,3
Fr, 14.05. 14:00 1005 + 0,9
Fr, 14.05. 8:00 1003 + 0,2
Ortszeit Luftdruck NN (hPa) Tendenz (hPa in 3 Std.)
So, 16.05. 2:10 1002 keine Meldung
So, 16.05. 2:00 1002 - 0,7
So, 16.05. 1:50 1002 keine Meldung
So, 16.05. 1:40 1002 keine Meldung
So, 16.05. 1:30 1002 - 0,8
So, 16.05. 1:20 1002 keine Meldung
So, 16.05. 1:00 1002 - 0,6
So, 16.05. 0:30 1002 - 0,5
So, 16.05. 0:00 1002 - 0,4
Sa, 15.05. 23:30 1003 - 0,1
Sa, 15.05. 23:00 1003 - 0,5
Ortszeit Schneehöhe (cm)
So, 16.05. 2:00 0
Sa, 15.05. 20:00 0
Sa, 15.05. 14:00 0
Sa, 15.05. 8:00 0
Sa, 15.05. 2:00 0
Fr, 14.05. 20:00 0
Fr, 14.05. 14:00 0
Fr, 14.05. 8:00 0
Ortszeit Schneehöhe (cm)
So, 16.05. 2:10 0
So, 16.05. 2:00 0
So, 16.05. 1:50 0
So, 16.05. 1:40 0
So, 16.05. 1:30 0
So, 16.05. 1:20 0
So, 16.05. 1:00 0
So, 16.05. 0:30 0
So, 16.05. 0:00 0
Sa, 15.05. 23:30 0
Sa, 15.05. 23:00 0
Link zu dieser Seite / Seite empfehlen

Das Wetter in ...